sensor_id;sensor_type;location;lat;lon;timestamp;pressure;altitude;pressure_sealevel;temperature;humidity
54816;BME280;40715;55.752;37.884;2022-12-16T00:01:09;98687.50;;;0.95;75.49
54816;BME280;40715;55.752;37.884;2022-12-16T00:03:37;98665.06;;;0.99;76.11
54816;BME280;40715;55.752;37.884;2022-12-16T00:06:06;98676.31;;;1.07;76.83
54816;BME280;40715;55.752;37.884;2022-12-16T00:08:35;98676.28;;;1.18;76.48
54816;BME280;40715;55.752;37.884;2022-12-16T00:11:03;98703.97;;;1.17;76.28
54816;BME280;40715;55.752;37.884;2022-12-16T00:13:31;98680.63;;;1.20;76.25
54816;BME280;40715;55.752;37.884;2022-12-16T00:16:03;98672.00;;;1.22;75.31
54816;BME280;40715;55.752;37.884;2022-12-16T00:18:30;98660.72;;;1.13;75.29
54816;BME280;40715;55.752;37.884;2022-12-16T00:20:57;98648.63;;;1.14;75.67
54816;BME280;40715;55.752;37.884;2022-12-16T00:23:24;98659.00;;;1.12;75.61
54816;BME280;40715;55.752;37.884;2022-12-16T00:25:51;98657.28;;;1.17;75.85
54816;BME280;40715;55.752;37.884;2022-12-16T00:28:18;98668.50;;;1.21;76.18
54816;BME280;40715;55.752;37.884;2022-12-16T00:30:51;98660.75;;;1.24;76.55
54816;BME280;40715;55.752;37.884;2022-12-16T00:33:19;98664.22;;;1.35;77.07
54816;BME280;40715;55.752;37.884;2022-12-16T00:35:46;98652.94;;;1.46;76.94
54816;BME280;40715;55.752;37.884;2022-12-16T00:38:14;98655.53;;;1.49;76.89
54816;BME280;40715;55.752;37.884;2022-12-16T00:40:41;98647.72;;;1.57;77.00
54816;BME280;40715;55.752;37.884;2022-12-16T00:43:09;98649.44;;;1.64;77.23
54816;BME280;40715;55.752;37.884;2022-12-16T00:45:36;98645.97;;;1.69;77.23
54816;BME280;40715;55.752;37.884;2022-12-16T00:48:05;98639.88;;;1.75;77.17
54816;BME280;40715;55.752;37.884;2022-12-16T00:50:33;98651.13;;;1.80;77.22
54816;BME280;40715;55.752;37.884;2022-12-16T00:53:00;98639.88;;;1.75;76.50
54816;BME280;40715;55.752;37.884;2022-12-16T00:55:27;98656.34;;;1.76;76.22
54816;BME280;40715;55.752;37.884;2022-12-16T00:57:54;98653.75;;;1.68;75.26
54816;BME280;40715;55.752;37.884;2022-12-16T01:00:21;98638.19;;;1.65;75.94
54816;BME280;40715;55.752;37.884;2022-12-16T01:02:50;98635.59;;;1.63;76.21
54816;BME280;40715;55.752;37.884;2022-12-16T01:05:20;98641.63;;;1.73;77.42
54816;BME280;40715;55.752;37.884;2022-12-16T01:07:47;98633.81;;;1.78;76.88
54816;BME280;40715;55.752;37.884;2022-12-16T01:10:14;98643.31;;;1.88;77.53
54816;BME280;40715;55.752;37.884;2022-12-16T01:12:41;98640.72;;;1.88;76.33
54816;BME280;40715;55.752;37.884;2022-12-16T01:15:09;98631.19;;;1.84;76.61
54816;BME280;40715;55.752;37.884;2022-12-16T01:17:39;98654.56;;;1.92;77.24
54816;BME280;40715;55.752;37.884;2022-12-16T01:20:07;98652.81;;;2.00;77.54
54816;BME280;40715;55.752;37.884;2022-12-16T01:22:35;98658.84;;;2.06;77.34
54816;BME280;40715;55.752;37.884;2022-12-16T01:25:03;98651.91;;;2.13;77.60
54816;BME280;40715;55.752;37.884;2022-12-16T01:27:30;98651.84;;;2.19;77.86
54816;BME280;40715;55.752;37.884;2022-12-16T01:29:57;98657.03;;;2.30;77.89
54816;BME280;40715;55.752;37.884;2022-12-16T01:32:24;98647.47;;;2.37;78.28
54816;BME280;40715;55.752;37.884;2022-12-16T01:34:52;98650.88;;;2.44;77.94
54816;BME280;40715;55.752;37.884;2022-12-16T01:37:21;98642.16;;;2.51;78.34
54816;BME280;40715;55.752;37.884;2022-12-16T01:39:48;98649.94;;;2.58;78.48
54816;BME280;40715;55.752;37.884;2022-12-16T01:42:19;98654.25;;;2.66;78.67
54816;BME280;40715;55.752;37.884;2022-12-16T01:44:49;98647.28;;;2.71;78.41
54816;BME280;40715;55.752;37.884;2022-12-16T01:47:22;98646.38;;;2.72;78.46
54816;BME280;40715;55.752;37.884;2022-12-16T01:50:01;98650.69;;;2.78;78.55
54816;BME280;40715;55.752;37.884;2022-12-16T01:52:37;98642.88;;;2.81;78.47
54816;BME280;40715;55.752;37.884;2022-12-16T01:55:23;98643.75;;;2.81;78.04
54816;BME280;40715;55.752;37.884;2022-12-16T01:58:06;98657.59;;;2.82;78.06
54816;BME280;40715;55.752;37.884;2022-12-16T02:00:36;98649.81;;;2.82;78.34
54816;BME280;40715;55.752;37.884;2022-12-16T02:03:04;98654.97;;;2.86;78.46
54816;BME280;40715;55.752;37.884;2022-12-16T02:05:38;98656.66;;;2.93;78.47
54816;BME280;40715;55.752;37.884;2022-12-16T02:13:49;98653.13;;;3.05;78.89
54816;BME280;40715;55.752;37.884;2022-12-16T02:28:04;98649.50;;;3.20;78.53
54816;BME280;40715;55.752;37.884;2022-12-16T02:31:16;98652.97;;;3.24;78.68
54816;BME280;40715;55.752;37.884;2022-12-16T02:33:54;98649.47;;;3.23;78.24
54816;BME280;40715;55.752;37.884;2022-12-16T02:38:58;98651.16;;;3.29;78.72
54816;BME280;40715;55.752;37.884;2022-12-16T02:41:43;98658.06;;;3.36;78.61
54816;BME280;40715;55.752;37.884;2022-12-16T02:44:13;98671.06;;;3.41;78.75
54816;BME280;40715;55.752;37.884;2022-12-16T02:46:58;98655.38;;;3.45;78.57
54816;BME280;40715;55.752;37.884;2022-12-16T02:51:52;98660.50;;;3.53;78.72
54816;BME280;40715;55.752;37.884;2022-12-16T02:54:19;98655.28;;;3.56;78.72
54816;BME280;40715;55.752;37.884;2022-12-16T02:59:50;98656.97;;;3.62;78.52
54816;BME280;40715;55.752;37.884;2022-12-16T03:05:09;98661.25;;;3.65;78.92
54816;BME280;40715;55.752;37.884;2022-12-16T03:07:39;98658.66;;;3.66;78.56
54816;BME280;40715;55.752;37.884;2022-12-16T03:10:12;98669.91;;;3.70;78.50
54816;BME280;40715;55.752;37.884;2022-12-16T03:12:43;98666.44;;;3.71;78.70
54816;BME280;40715;55.752;37.884;2022-12-16T03:15:17;98672.47;;;3.74;79.07
54816;BME280;40715;55.752;37.884;2022-12-16T03:17:46;98669.81;;;3.79;78.83
54816;BME280;40715;55.752;37.884;2022-12-16T03:20:35;98669.81;;;3.82;78.96
54816;BME280;40715;55.752;37.884;2022-12-16T03:23:09;98670.63;;;3.84;79.24
54816;BME280;40715;55.752;37.884;2022-12-16T03:25:41;98668.00;;;3.87;79.34
54816;BME280;40715;55.752;37.884;2022-12-16T03:28:34;98673.16;;;3.90;79.61
54816;BME280;40715;55.752;37.884;2022-12-16T03:31:12;98673.16;;;3.93;79.21
54816;BME280;40715;55.752;37.884;2022-12-16T03:33:48;98671.38;;;3.95;78.93
54816;BME280;40715;55.752;37.884;2022-12-16T03:36:37;98680.03;;;3.97;79.11
54816;BME280;40715;55.752;37.884;2022-12-16T03:39:06;98678.31;;;3.98;78.84
54816;BME280;40715;55.752;37.884;2022-12-16T03:41:34;98688.72;;;4.00;79.02
54816;BME280;40715;55.752;37.884;2022-12-16T03:44:02;98699.97;;;4.02;79.12
54816;BME280;40715;55.752;37.884;2022-12-16T03:46:29;98688.69;;;4.03;79.13
54816;BME280;40715;55.752;37.884;2022-12-16T03:48:57;98689.53;;;4.03;78.74
54816;BME280;40715;55.752;37.884;2022-12-16T03:51:24;98689.53;;;4.06;78.87
54816;BME280;40715;55.752;37.884;2022-12-16T03:54:08;98698.19;;;4.08;78.61
54816;BME280;40715;55.752;37.884;2022-12-16T03:56:35;98692.13;;;4.08;78.77
54816;BME280;40715;55.752;37.884;2022-12-16T03:59:02;98693.81;;;4.09;78.61
54816;BME280;40715;55.752;37.884;2022-12-16T04:01:29;98704.22;;;4.10;78.69
54816;BME280;40715;55.752;37.884;2022-12-16T04:03:56;98709.44;;;4.10;78.62
54816;BME280;40715;55.752;37.884;2022-12-16T04:06:23;98721.59;;;4.13;78.68
54816;BME280;40715;55.752;37.884;2022-12-16T04:08:50;98721.59;;;4.13;78.59
54816;BME280;40715;55.752;37.884;2022-12-16T04:11:34;98730.25;;;4.17;78.76
54816;BME280;40715;55.752;37.884;2022-12-16T04:14:21;98732.00;;;4.18;78.56
54816;BME280;40715;55.752;37.884;2022-12-16T04:17:10;98730.25;;;4.17;78.81
54816;BME280;40715;55.752;37.884;2022-12-16T04:19:57;98736.34;;;4.15;78.75
54816;BME280;40715;55.752;37.884;2022-12-16T04:22:43;98748.47;;;4.18;78.70
54816;BME280;40715;55.752;37.884;2022-12-16T04:25:33;98749.34;;;4.17;78.85
54816;BME280;40715;55.752;37.884;2022-12-16T04:28:19;98759.75;;;4.19;78.57
54816;BME280;40715;55.752;37.884;2022-12-16T04:30:46;98752.81;;;4.19;78.48
54816;BME280;40715;55.752;37.884;2022-12-16T04:33:14;98760.66;;;4.19;78.78
54816;BME280;40715;55.752;37.884;2022-12-16T04:36:00;98770.16;;;4.22;78.79
54816;BME280;40715;55.752;37.884;2022-12-16T04:39:03;98773.66;;;4.22;78.45
54816;BME280;40715;55.752;37.884;2022-12-16T04:41:52;98781.50;;;4.21;78.60
54816;BME280;40715;55.752;37.884;2022-12-16T04:44:56;98785.81;;;4.22;78.84
54816;BME280;40715;55.752;37.884;2022-12-16T04:47:41;98787.56;;;4.21;78.66
54816;BME280;40715;55.752;37.884;2022-12-16T04:50:27;98796.25;;;4.20;78.56
54816;BME280;40715;55.752;37.884;2022-12-16T04:53:12;98797.13;;;4.21;78.77
54816;BME280;40715;55.752;37.884;2022-12-16T04:55:58;98797.13;;;4.22;78.87
54816;BME280;40715;55.752;37.884;2022-12-16T04:58:43;98794.50;;;4.22;78.82
54816;BME280;40715;55.752;37.884;2022-12-16T05:01:46;98802.31;;;4.24;78.72
54816;BME280;40715;55.752;37.884;2022-12-16T05:04:32;98805.78;;;4.24;78.60
54816;BME280;40715;55.752;37.884;2022-12-16T05:07:18;98823.13;;;4.27;78.67
54816;BME280;40715;55.752;37.884;2022-12-16T05:10:05;98823.13;;;4.27;78.79
54816;BME280;40715;55.752;37.884;2022-12-16T05:12:52;98817.06;;;4.26;78.86
54816;BME280;40715;55.752;37.884;2022-12-16T05:15:38;98822.28;;;4.28;78.76
54816;BME280;40715;55.752;37.884;2022-12-16T05:18:24;98828.31;;;4.30;78.71
54816;BME280;40715;55.752;37.884;2022-12-16T05:21:10;98831.81;;;4.30;78.70
54816;BME280;40715;55.752;37.884;2022-12-16T05:23:55;98839.63;;;4.30;78.76
54816;BME280;40715;55.752;37.884;2022-12-16T05:26:41;98834.41;;;4.32;78.91
54816;BME280;40715;55.752;37.884;2022-12-16T05:29:43;98843.94;;;4.31;78.89
54816;BME280;40715;55.752;37.884;2022-12-16T05:32:29;98847.44;;;4.34;79.06
54816;BME280;40715;55.752;37.884;2022-12-16T05:35:18;98857.84;;;4.34;78.61
54816;BME280;40715;55.752;37.884;2022-12-16T05:38:04;98859.56;;;4.35;78.75
54816;BME280;40715;55.752;37.884;2022-12-16T05:40:49;98854.38;;;4.33;78.68
54816;BME280;40715;55.752;37.884;2022-12-16T05:43:35;98867.38;;;4.35;78.48
54816;BME280;40715;55.752;37.884;2022-12-16T05:46:20;98866.50;;;4.36;78.70
54816;BME280;40715;55.752;37.884;2022-12-16T05:52:15;98886.50;;;4.37;78.93
54816;BME280;40715;55.752;37.884;2022-12-16T05:55:01;98884.78;;;4.36;78.68
54816;BME280;40715;55.752;37.884;2022-12-16T05:57:50;98896.94;;;4.37;79.04
54816;BME280;40715;55.752;37.884;2022-12-16T06:00:36;98897.78;;;4.37;78.48
54816;BME280;40715;55.752;37.884;2022-12-16T06:03:22;98905.59;;;4.39;78.57
54816;BME280;40715;55.752;37.884;2022-12-16T06:06:07;98906.50;;;4.38;78.92
54816;BME280;40715;55.752;37.884;2022-12-16T06:08:53;98911.72;;;4.39;78.63
54816;BME280;40715;55.752;37.884;2022-12-16T06:11:38;98921.25;;;4.39;78.57
54816;BME280;40715;55.752;37.884;2022-12-16T06:14:24;98931.66;;;4.40;78.64
54816;BME280;40715;55.752;37.884;2022-12-16T06:17:10;98940.38;;;4.41;78.46
54816;BME280;40715;55.752;37.884;2022-12-16T06:19:55;98945.63;;;4.39;78.67
54816;BME280;40715;55.752;37.884;2022-12-16T06:22:41;98948.22;;;4.41;78.66
54816;BME280;40715;55.752;37.884;2022-12-16T06:25:27;98956.88;;;4.43;78.74
54816;BME280;40715;55.752;37.884;2022-12-16T06:28:12;98950.81;;;4.41;78.54
54816;BME280;40715;55.752;37.884;2022-12-16T06:30:58;98962.09;;;4.41;78.70
54816;BME280;40715;55.752;37.884;2022-12-16T06:33:43;98976.88;;;4.42;78.94
54816;BME280;40715;55.752;37.884;2022-12-16T06:36:29;98979.50;;;4.42;78.98
54816;BME280;40715;55.752;37.884;2022-12-16T06:39:16;98986.44;;;4.45;79.17
54816;BME280;40715;55.752;37.884;2022-12-16T06:42:02;98987.31;;;4.44;78.69
54816;BME280;40715;55.752;37.884;2022-12-16T06:44:50;99008.16;;;4.44;78.57
54816;BME280;40715;55.752;37.884;2022-12-16T06:47:38;99013.41;;;4.42;78.91
54816;BME280;40715;55.752;37.884;2022-12-16T06:50:24;99011.63;;;4.44;78.67
54816;BME280;40715;55.752;37.884;2022-12-16T06:53:10;99040.31;;;4.44;78.66
54816;BME280;40715;55.752;37.884;2022-12-16T06:55:56;99030.81;;;4.42;78.87
54816;BME280;40715;55.752;37.884;2022-12-16T06:58:59;99044.69;;;4.44;78.80
54816;BME280;40715;55.752;37.884;2022-12-16T07:01:44;99054.25;;;4.45;78.75
54816;BME280;40715;55.752;37.884;2022-12-16T07:04:32;99062.09;;;4.43;79.02
54816;BME280;40715;55.752;37.884;2022-12-16T07:07:18;99069.91;;;4.45;79.08
54816;BME280;40715;55.752;37.884;2022-12-16T07:10:20;99073.38;;;4.45;78.57
54816;BME280;40715;55.752;37.884;2022-12-16T07:13:06;99083.81;;;4.45;78.92
54816;BME280;40715;55.752;37.884;2022-12-16T07:15:51;99096.00;;;4.45;78.59
54816;BME280;40715;55.752;37.884;2022-12-16T07:18:39;99089.91;;;4.44;78.65
54816;BME280;40715;55.752;37.884;2022-12-16T07:21:37;99115.97;;;4.46;78.89
54816;BME280;40715;55.752;37.884;2022-12-16T07:24:23;99113.34;;;4.46;78.94
54816;BME280;40715;55.752;37.884;2022-12-16T07:27:08;99122.94;;;4.47;78.92
54816;BME280;40715;55.752;37.884;2022-12-16T07:29:54;99132.50;;;4.46;78.92
54816;BME280;40715;55.752;37.884;2022-12-16T07:32:40;99136.81;;;4.47;78.85
54816;BME280;40715;55.752;37.884;2022-12-16T07:35:25;99131.63;;;4.49;78.81
54816;BME280;40715;55.752;37.884;2022-12-16T07:38:11;99149.00;;;4.48;78.67
54816;BME280;40715;55.752;37.884;2022-12-16T07:40:57;99158.56;;;4.49;78.89
54816;BME280;40715;55.752;37.884;2022-12-16T07:43:42;99172.47;;;4.48;78.81
54816;BME280;40715;55.752;37.884;2022-12-16T07:46:27;99175.09;;;4.48;78.77
54816;BME280;40715;55.752;37.884;2022-12-16T07:49:13;99183.81;;;4.49;78.73
54816;BME280;40715;55.752;37.884;2022-12-16T07:51:59;99180.31;;;4.48;78.63
54816;BME280;40715;55.752;37.884;2022-12-16T07:54:45;99193.34;;;4.48;78.61
54816;BME280;40715;55.752;37.884;2022-12-16T07:57:31;99195.97;;;4.48;78.71
54816;BME280;40715;55.752;37.884;2022-12-16T08:00:17;99210.75;;;4.48;78.96
54816;BME280;40715;55.752;37.884;2022-12-16T08:03:02;99211.63;;;4.47;78.83
54816;BME280;40715;55.752;37.884;2022-12-16T08:05:48;99223.81;;;4.48;78.75
54816;BME280;40715;55.752;37.884;2022-12-16T08:08:34;99219.44;;;4.48;78.80
54816;BME280;40715;55.752;37.884;2022-12-16T08:11:19;99229.88;;;4.48;78.79
54816;BME280;40715;55.752;37.884;2022-12-16T08:14:05;99227.25;;;4.48;79.12
54816;BME280;40715;55.752;37.884;2022-12-16T08:16:51;99221.19;;;4.49;78.79
54816;BME280;40715;55.752;37.884;2022-12-16T08:19:36;99232.47;;;4.50;78.74
54816;BME280;40715;55.752;37.884;2022-12-16T08:22:22;99232.47;;;4.50;78.85
54816;BME280;40715;55.752;37.884;2022-12-16T08:25:07;99235.97;;;4.51;78.92
54816;BME280;40715;55.752;37.884;2022-12-16T08:27:55;99244.66;;;4.53;79.02
54816;BME280;40715;55.752;37.884;2022-12-16T08:30:41;99243.78;;;4.52;79.17
54816;BME280;40715;55.752;37.884;2022-12-16T08:33:26;99248.13;;;4.53;78.70
54816;BME280;40715;55.752;37.884;2022-12-16T08:36:12;99251.63;;;4.52;78.91
54816;BME280;40715;55.752;37.884;2022-12-16T08:38:58;99255.09;;;4.51;79.11
54816;BME280;40715;55.752;37.884;2022-12-16T08:41:43;99264.66;;;4.52;78.90
54816;BME280;40715;55.752;37.884;2022-12-16T08:44:29;99268.13;;;4.53;78.94
54816;BME280;40715;55.752;37.884;2022-12-16T08:47:15;99275.94;;;4.53;78.73
54816;BME280;40715;55.752;37.884;2022-12-16T08:50:00;99281.19;;;4.53;78.93
54816;BME280;40715;55.752;37.884;2022-12-16T08:52:46;99283.78;;;4.53;78.88
54816;BME280;40715;55.752;37.884;2022-12-16T08:55:31;99296.81;;;4.53;79.03
54816;BME280;40715;55.752;37.884;2022-12-16T08:58:17;99296.81;;;4.53;78.93
54816;BME280;40715;55.752;37.884;2022-12-16T09:01:02;99302.03;;;4.54;79.05
54816;BME280;40715;55.752;37.884;2022-12-16T09:03:48;99314.22;;;4.55;78.96
54816;BME280;40715;55.752;37.884;2022-12-16T09:06:36;99319.44;;;4.57;78.99
54816;BME280;40715;55.752;37.884;2022-12-16T09:09:22;99322.03;;;4.57;78.99
54816;BME280;40715;55.752;37.884;2022-12-16T09:12:12;99326.41;;;4.56;79.00
54816;BME280;40715;55.752;37.884;2022-12-16T09:14:57;99333.34;;;4.56;78.88
54816;BME280;40715;55.752;37.884;2022-12-16T09:17:43;99340.31;;;4.55;79.00
54816;BME280;40715;55.752;37.884;2022-12-16T09:20:29;99346.38;;;4.56;78.93
54816;BME280;40715;55.752;37.884;2022-12-16T09:23:15;99349.88;;;4.56;78.94
54816;BME280;40715;55.752;37.884;2022-12-16T09:26:01;99349.88;;;4.56;79.22
54816;BME280;40715;55.752;37.884;2022-12-16T09:28:46;99344.66;;;4.56;78.91
54816;BME280;40715;55.752;37.884;2022-12-16T09:31:32;99356.81;;;4.57;78.97
54816;BME280;40715;55.752;37.884;2022-12-16T09:34:17;99369.00;;;4.58;79.37
54816;BME280;40715;55.752;37.884;2022-12-16T09:37:03;99368.16;;;4.58;79.24
54816;BME280;40715;55.752;37.884;2022-12-16T09:39:54;99362.94;;;4.58;78.92
54816;BME280;40715;55.752;37.884;2022-12-16T09:45:59;99394.22;;;4.59;79.35
54816;BME280;40715;55.752;37.884;2022-12-16T09:52:15;99387.25;;;4.61;79.02
54816;BME280;40715;55.752;37.884;2022-12-16T09:55:04;99382.94;;;4.60;79.28
54816;BME280;40715;55.752;37.884;2022-12-16T09:57:53;99393.38;;;4.62;79.15
54816;BME280;40715;55.752;37.884;2022-12-16T10:00:39;99401.19;;;4.62;79.30
54816;BME280;40715;55.752;37.884;2022-12-16T10:03:33;99407.28;;;4.62;79.17
54816;BME280;40715;55.752;37.884;2022-12-16T10:09:31;99416.84;;;4.62;79.37
54816;BME280;40715;55.752;37.884;2022-12-16T10:18:46;99424.66;;;4.65;79.48
54816;BME280;40715;55.752;37.884;2022-12-16T10:25:21;99449.88;;;4.63;79.43
54816;BME280;40715;55.752;37.884;2022-12-16T10:31:15;99447.28;;;4.60;79.19
54816;BME280;40715;55.752;37.884;2022-12-16T10:34:01;99446.41;;;4.59;79.22
54816;BME280;40715;55.752;37.884;2022-12-16T10:36:48;99458.59;;;4.60;79.15
54816;BME280;40715;55.752;37.884;2022-12-16T10:39:46;99472.50;;;4.61;79.18
54816;BME280;40715;55.752;37.884;2022-12-16T10:42:43;99473.38;;;4.60;79.34
54816;BME280;40715;55.752;37.884;2022-12-16T10:45:39;99479.47;;;4.60;79.41
54816;BME280;40715;55.752;37.884;2022-12-16T10:48:31;99482.06;;;4.59;79.14
54816;BME280;40715;55.752;37.884;2022-12-16T10:51:22;99493.41;;;4.59;78.88
54816;BME280;40715;55.752;37.884;2022-12-16T10:54:37;99494.25;;;4.61;79.74
54816;BME280;40715;55.752;37.884;2022-12-16T11:00:51;99507.28;;;4.58;79.60
54816;BME280;40715;55.752;37.884;2022-12-16T11:03:38;99510.75;;;4.59;79.07
54816;BME280;40715;55.752;37.884;2022-12-16T11:06:25;99511.66;;;4.64;79.63
54816;BME280;40715;55.752;37.884;2022-12-16T11:09:41;99513.38;;;4.57;79.11
54816;BME280;40715;55.752;37.884;2022-12-16T11:12:27;99519.50;;;4.56;78.94
54816;BME280;40715;55.752;37.884;2022-12-16T11:18:20;99536.88;;;4.57;79.52
54816;BME280;40715;55.752;37.884;2022-12-16T11:21:12;99528.19;;;4.55;79.31
54816;BME280;40715;55.752;37.884;2022-12-16T11:24:10;99542.97;;;4.55;79.35
54816;BME280;40715;55.752;37.884;2022-12-16T11:27:02;99547.31;;;4.56;79.59
54816;BME280;40715;55.752;37.884;2022-12-16T11:29:53;99549.06;;;4.55;79.24
54816;BME280;40715;55.752;37.884;2022-12-16T11:32:51;99556.88;;;4.57;79.28
54816;BME280;40715;55.752;37.884;2022-12-16T11:35:45;99571.69;;;4.56;79.35
54816;BME280;40715;55.752;37.884;2022-12-16T11:38:49;99569.06;;;4.56;79.22
54816;BME280;40715;55.752;37.884;2022-12-16T11:41:41;99572.53;;;4.55;79.50
54816;BME280;40715;55.752;37.884;2022-12-16T11:44:51;99576.91;;;4.55;79.45
54816;BME280;40715;55.752;37.884;2022-12-16T11:47:45;99592.56;;;4.55;79.19
54816;BME280;40715;55.752;37.884;2022-12-16T11:50:35;99593.41;;;4.54;79.29
54816;BME280;40715;55.752;37.884;2022-12-16T11:53:31;99600.34;;;4.53;79.32
54816;BME280;40715;55.752;37.884;2022-12-16T11:56:23;99602.97;;;4.53;79.16
54816;BME280;40715;55.752;37.884;2022-12-16T11:59:23;99613.44;;;4.55;79.58
54816;BME280;40715;55.752;37.884;2022-12-16T12:02:22;99606.47;;;4.52;79.52
54816;BME280;40715;55.752;37.884;2022-12-16T12:05:13;99622.97;;;4.53;79.20
54816;BME280;40715;55.752;37.884;2022-12-16T12:08:07;99633.41;;;4.54;79.42
54816;BME280;40715;55.752;37.884;2022-12-16T12:14:12;99642.13;;;4.55;79.57
54816;BME280;40715;55.752;37.884;2022-12-16T12:17:14;99645.59;;;4.55;79.25
54816;BME280;40715;55.752;37.884;2022-12-16T12:23:45;99649.97;;;4.55;79.17
54816;BME280;40715;55.752;37.884;2022-12-16T12:26:31;99652.53;;;4.53;79.27
54816;BME280;40715;55.752;37.884;2022-12-16T12:35:55;99671.69;;;4.54;79.46
54816;BME280;40715;55.752;37.884;2022-12-16T12:38:54;99669.94;;;4.53;79.27
54816;BME280;40715;55.752;37.884;2022-12-16T12:47:26;99675.16;;;4.51;79.23
54816;BME280;40715;55.752;37.884;2022-12-16T12:50:23;99675.16;;;4.49;79.39
54816;BME280;40715;55.752;37.884;2022-12-16T12:53:39;99670.78;;;4.50;79.63
54816;BME280;40715;55.752;37.884;2022-12-16T12:59:46;99687.34;;;4.51;79.73
54816;BME280;40715;55.752;37.884;2022-12-16T13:05:33;99704.72;;;4.45;79.09
54816;BME280;40715;55.752;37.884;2022-12-16T13:08:32;99698.63;;;4.46;79.27
54816;BME280;40715;55.752;37.884;2022-12-16T13:11:17;99715.16;;;4.47;78.96
54816;BME280;40715;55.752;37.884;2022-12-16T13:20:55;99721.22;;;4.43;79.13
54816;BME280;40715;55.752;37.884;2022-12-16T13:23:43;99734.25;;;4.43;78.98
54816;BME280;40715;55.752;37.884;2022-12-16T13:26:59;99721.22;;;4.43;79.30
54816;BME280;40715;55.752;37.884;2022-12-16T13:30:05;99730.78;;;4.41;78.87
54816;BME280;40715;55.752;37.884;2022-12-16T13:33:39;99725.53;;;4.35;79.54
54816;BME280;40715;55.752;37.884;2022-12-16T13:36:34;99745.53;;;4.37;78.50
54816;BME280;40715;55.752;37.884;2022-12-16T13:39:25;99747.28;;;4.35;78.60
54816;BME280;40715;55.752;37.884;2022-12-16T13:45:38;99756.81;;;4.35;78.59
54816;BME280;40715;55.752;37.884;2022-12-16T13:48:30;99762.94;;;4.34;78.41
54816;BME280;40715;55.752;37.884;2022-12-16T13:57:17;99784.66;;;4.31;78.44
54816;BME280;40715;55.752;37.884;2022-12-16T14:00:38;99796.84;;;4.32;78.52
54816;BME280;40715;55.752;37.884;2022-12-16T14:03:43;99795.09;;;4.37;78.91
54816;BME280;40715;55.752;37.884;2022-12-16T14:06:39;99797.72;;;4.40;79.26
54816;BME280;40715;55.752;37.884;2022-12-16T14:12:24;99798.63;;;4.45;79.04
54816;BME280;40715;55.752;37.884;2022-12-16T14:15:53;99800.41;;;4.48;79.30
54816;BME280;40715;55.752;37.884;2022-12-16T14:25:06;99815.16;;;4.47;78.88
54816;BME280;40715;55.752;37.884;2022-12-16T14:27:53;99812.53;;;4.46;79.04
54816;BME280;40715;55.752;37.884;2022-12-16T14:30:39;99820.38;;;4.47;78.73
54816;BME280;40715;55.752;37.884;2022-12-16T14:33:31;99829.09;;;4.48;78.89
54816;BME280;40715;55.752;37.884;2022-12-16T14:39:12;99818.66;;;4.48;78.59
54816;BME280;40715;55.752;37.884;2022-12-16T14:42:18;99823.88;;;4.49;78.88
54816;BME280;40715;55.752;37.884;2022-12-16T14:51:30;99831.69;;;4.42;78.68
54816;BME280;40715;55.752;37.884;2022-12-16T14:57:07;99833.34;;;4.32;77.97
54816;BME280;40715;55.752;37.884;2022-12-16T15:00:08;99842.03;;;4.29;78.18
54816;BME280;40715;55.752;37.884;2022-12-16T15:05:51;99847.22;;;4.23;78.06
54816;BME280;40715;55.752;37.884;2022-12-16T15:09:00;99847.22;;;4.25;79.02
54816;BME280;40715;55.752;37.884;2022-12-16T15:11:49;99844.59;;;4.23;78.24
54816;BME280;40715;55.752;37.884;2022-12-16T15:14:38;99851.53;;;4.23;77.96
54816;BME280;40715;55.752;37.884;2022-12-16T15:17:50;99859.34;;;4.21;77.96
54816;BME280;40715;55.752;37.884;2022-12-16T15:20:54;99853.25;;;4.19;78.09
54816;BME280;40715;55.752;37.884;2022-12-16T15:23:44;99861.94;;;4.20;78.00
54816;BME280;40715;55.752;37.884;2022-12-16T15:26:32;99867.16;;;4.18;77.83
54816;BME280;40715;55.752;37.884;2022-12-16T15:35:31;99881.03;;;4.15;78.74
54816;BME280;40715;55.752;37.884;2022-12-16T15:38:27;99880.16;;;4.13;78.00
54816;BME280;40715;55.752;37.884;2022-12-16T15:41:22;99877.56;;;4.15;78.44
54816;BME280;40715;55.752;37.884;2022-12-16T15:44:27;99887.13;;;4.16;78.40
54816;BME280;40715;55.752;37.884;2022-12-16T15:47:35;99875.84;;;4.17;78.74
54816;BME280;40715;55.752;37.884;2022-12-16T15:50:26;99879.34;;;4.18;78.36
54816;BME280;40715;55.752;37.884;2022-12-16T15:56:01;99879.34;;;4.21;78.22
54816;BME280;40715;55.752;37.884;2022-12-16T15:58:46;99878.47;;;4.20;78.25
54816;BME280;40715;55.752;37.884;2022-12-16T16:01:42;99866.31;;;4.21;78.38
54816;BME280;40715;55.752;37.884;2022-12-16T16:04:30;99869.78;;;4.21;78.52
54816;BME280;40715;55.752;37.884;2022-12-16T16:07:18;99882.81;;;4.20;78.06
54816;BME280;40715;55.752;37.884;2022-12-16T16:10:19;99876.66;;;4.10;77.90
54816;BME280;40715;55.752;37.884;2022-12-16T16:13:30;99880.94;;;4.03;77.22
54816;BME280;40715;55.752;37.884;2022-12-16T16:16:16;99893.94;;;4.02;77.36
54816;BME280;40715;55.752;37.884;2022-12-16T16:19:03;99885.25;;;4.00;77.48
54816;BME280;40715;55.752;37.884;2022-12-16T16:21:48;99882.66;;;4.03;77.76
54816;BME280;40715;55.752;37.884;2022-12-16T16:24:35;99883.56;;;4.05;77.87
54816;BME280;40715;55.752;37.884;2022-12-16T16:27:21;99879.22;;;4.07;78.05
54816;BME280;40715;55.752;37.884;2022-12-16T16:30:10;99881.00;;;4.11;78.25
54816;BME280;40715;55.752;37.884;2022-12-16T16:32:58;99881.88;;;4.11;77.87
54816;BME280;40715;55.752;37.884;2022-12-16T16:35:47;99885.31;;;4.10;78.02
54816;BME280;40715;55.752;37.884;2022-12-16T16:38:34;99884.47;;;4.10;77.90
54816;BME280;40715;55.752;37.884;2022-12-16T16:41:19;99877.47;;;4.06;77.51
54816;BME280;40715;55.752;37.884;2022-12-16T16:44:06;99883.50;;;3.98;77.50
54816;BME280;40715;55.752;37.884;2022-12-16T16:46:55;99890.47;;;3.98;77.70
54816;BME280;40715;55.752;37.884;2022-12-16T16:49:45;99889.56;;;3.97;77.47